createdAt,value
2018-02-20T00:01:57.144Z,21.33
2018-02-20T00:04:25.371Z,18.10
2018-02-20T00:06:52.814Z,22.40
2018-02-20T00:09:20.276Z,18.33
2018-02-20T00:11:47.713Z,18.47
2018-02-20T00:14:15.155Z,19.07
2018-02-20T00:16:42.653Z,20.60
2018-02-20T00:19:10.122Z,17.90
2018-02-20T00:21:37.663Z,22.20
2018-02-20T00:24:05.113Z,21.90
2018-02-20T00:26:32.583Z,20.87
2018-02-20T00:29:00.040Z,19.47
2018-02-20T00:31:27.476Z,17.13
2018-02-20T00:33:54.920Z,18.60
2018-02-20T00:36:22.415Z,22.87
2018-02-20T00:38:49.865Z,22.47
2018-02-20T00:41:17.300Z,21.70
2018-02-20T00:43:44.776Z,18.57
2018-02-20T00:46:12.223Z,18.50
2018-02-20T00:48:39.651Z,21.20
2018-02-20T00:51:07.092Z,20.27
2018-02-20T00:53:35.292Z,23.13
2018-02-20T00:56:02.727Z,21.83
2018-02-20T00:58:31.059Z,22.90
2018-02-20T01:00:58.515Z,18.93
2018-02-20T01:03:26.172Z,24.73
2018-02-20T01:05:53.628Z,23.73
2018-02-20T01:08:21.092Z,22.97
2018-02-20T01:10:48.532Z,23.90
2018-02-20T01:13:15.968Z,21.70
2018-02-20T01:15:43.416Z,21.57
2018-02-20T01:18:10.913Z,19.47
2018-02-20T01:20:38.376Z,23.57
2018-02-20T01:23:05.936Z,20.80
2018-02-20T01:25:33.395Z,21.03
2018-02-20T01:28:00.856Z,21.90
2018-02-20T01:30:28.416Z,21.67
2018-02-20T01:32:55.870Z,23.20
2018-02-20T01:35:23.420Z,21.97
2018-02-20T01:37:50.870Z,22.90
2018-02-20T01:40:18.312Z,22.67
2018-02-20T01:42:45.752Z,17.60
2018-02-20T01:45:13.192Z,21.40
2018-02-20T01:47:41.423Z,20.27
2018-02-20T01:50:08.885Z,17.53
2018-02-20T01:52:36.327Z,20.27
2018-02-20T01:55:03.788Z,19.57
2018-02-20T01:57:31.228Z,16.93
2018-02-20T01:59:58.708Z,19.73
2018-02-20T02:02:26.151Z,18.90
2018-02-20T02:04:53.582Z,20.93
2018-02-20T02:07:21.073Z,37.43
2018-02-20T02:09:48.536Z,20.47
2018-02-20T02:12:15.988Z,22.03
2018-02-20T02:14:43.423Z,20.73
2018-02-20T02:17:10.860Z,26.37
2018-02-20T02:19:38.359Z,25.00
2018-02-20T02:22:05.801Z,23.97
2018-02-20T02:24:33.240Z,24.30
2018-02-20T02:27:00.728Z,24.20
2018-02-20T02:29:28.192Z,24.90
2018-02-20T02:31:55.630Z,25.37
2018-02-20T02:34:23.061Z,21.13
2018-02-20T02:36:51.285Z,26.60
2018-02-20T02:39:18.724Z,27.53
2018-02-20T02:41:46.176Z,26.23
2018-02-20T02:44:13.618Z,28.00
2018-02-20T02:46:41.666Z,23.10
2018-02-20T02:49:09.887Z,24.50
2018-02-20T02:51:37.324Z,22.93
2018-02-20T02:54:04.780Z,27.53
2018-02-20T02:56:32.215Z,24.43
2018-02-20T02:58:59.724Z,25.17
2018-02-20T03:01:27.668Z,22.07
2018-02-20T03:03:55.119Z,22.80
2018-02-20T03:06:22.563Z,24.37
2018-02-20T03:08:50.068Z,24.33
2018-02-20T03:11:17.627Z,23.83
2018-02-20T03:13:45.077Z,25.70
2018-02-20T03:16:12.528Z,22.27
2018-02-20T03:18:39.980Z,29.40
2018-02-20T03:21:07.431Z,25.47
2018-02-20T03:23:35.411Z,25.07
2018-02-20T03:26:02.874Z,23.50
2018-02-20T03:28:30.307Z,26.20
2018-02-20T03:30:57.747Z,22.97
2018-02-20T03:33:25.203Z,27.67
2018-02-20T03:35:52.697Z,30.53
2018-02-20T03:38:20.130Z,25.13
2018-02-20T03:40:47.568Z,24.90
2018-02-20T03:43:15.072Z,23.30
2018-02-20T03:45:42.523Z,24.27
2018-02-20T03:48:09.968Z,20.20
2018-02-20T03:50:37.411Z,20.90
2018-02-20T03:53:05.049Z,17.27
2018-02-20T03:55:33.259Z,18.20
2018-02-20T03:58:00.745Z,19.70
2018-02-20T04:00:28.295Z,26.40
2018-02-20T04:02:55.745Z,16.73
2018-02-20T04:05:23.178Z,16.17
2018-02-20T04:07:50.621Z,18.60
2018-02-20T04:10:18.822Z,21.90
2018-02-20T04:12:46.258Z,24.17
2018-02-20T04:15:13.744Z,17.50
2018-02-20T04:17:41.207Z,19.47
2018-02-20T04:20:08.747Z,15.20
2018-02-20T04:22:36.219Z,17.77
2018-02-20T04:25:03.660Z,18.43
2018-02-20T04:27:31.140Z,17.97
2018-02-20T04:29:58.595Z,15.70
2018-02-20T04:32:26.024Z,16.73
2018-02-20T04:34:53.504Z,16.87
2018-02-20T04:37:20.968Z,20.63
2018-02-20T04:39:48.429Z,15.80
2018-02-20T04:42:15.869Z,18.60
2018-02-20T04:44:43.309Z,18.03
2018-02-20T04:47:11.307Z,21.27
2018-02-20T04:49:38.746Z,15.57
2018-02-20T04:52:06.176Z,16.00
2018-02-20T04:54:33.676Z,23.80
2018-02-20T04:57:01.177Z,17.73
2018-02-20T04:59:29.410Z,17.73
2018-02-20T05:01:56.839Z,19.37
2018-02-20T05:04:24.315Z,15.60
2018-02-20T05:06:51.776Z,17.37
2018-02-20T05:09:20.264Z,21.40
2018-02-20T05:11:47.811Z,16.67
2018-02-20T05:14:15.268Z,22.13
2018-02-20T05:16:42.727Z,20.50
2018-02-20T05:19:10.188Z,19.73
2018-02-20T05:21:37.640Z,17.93
2018-02-20T05:24:05.099Z,18.33
2018-02-20T05:26:32.546Z,19.43
2018-02-20T05:28:59.995Z,24.67
2018-02-20T05:31:27.485Z,27.17
2018-02-20T05:33:55.032Z,31.00
2018-02-20T05:36:22.484Z,30.60
2018-02-20T05:38:49.924Z,30.57
2018-02-20T05:41:17.363Z,35.47
2018-02-20T05:43:44.804Z,31.03
2018-02-20T05:46:13.034Z,26.77
2018-02-20T05:48:40.474Z,26.83
2018-02-20T05:51:07.914Z,27.30
2018-02-20T05:53:35.357Z,25.10
2018-02-20T05:56:03.680Z,24.27
2018-02-20T05:58:31.127Z,25.03
2018-02-20T06:00:59.304Z,14.40
2018-02-20T06:03:26.767Z,21.40
2018-02-20T06:05:54.215Z,25.57
2018-02-20T06:08:21.668Z,21.30
2018-02-20T06:10:49.101Z,22.43
2018-02-20T06:13:16.600Z,19.63
2018-02-20T06:15:44.212Z,17.80
2018-02-20T06:18:11.716Z,20.57
2018-02-20T06:20:39.168Z,21.10
2018-02-20T06:23:06.657Z,18.87
2018-02-20T06:25:34.089Z,24.57
2018-02-20T06:28:01.544Z,19.80
2018-02-20T06:30:28.999Z,20.60
2018-02-20T06:32:56.451Z,21.13
2018-02-20T06:35:23.880Z,18.47
2018-02-20T06:37:51.312Z,20.00
2018-02-20T06:40:19.540Z,23.97
2018-02-20T06:42:47.003Z,24.50
2018-02-20T06:45:14.564Z,19.90
2018-02-20T06:47:42.124Z,25.10
2018-02-20T06:50:09.558Z,24.87
2018-02-20T06:52:36.996Z,27.00
2018-02-20T06:55:04.500Z,24.73
2018-02-20T06:57:31.945Z,20.93
2018-02-20T06:59:59.396Z,23.67
2018-02-20T07:02:26.858Z,23.30
2018-02-20T07:04:54.311Z,23.57
2018-02-20T07:07:21.768Z,18.97
2018-02-20T07:09:49.231Z,23.20
2018-02-20T07:12:16.682Z,24.63
2018-02-20T07:14:44.116Z,28.10
2018-02-20T07:17:11.560Z,30.80
2018-02-20T07:19:39.066Z,29.73
2018-02-20T07:22:06.531Z,25.50
2018-02-20T07:24:33.955Z,28.57
2018-02-20T07:27:01.436Z,30.63
2018-02-20T07:29:28.888Z,31.90
2018-02-20T07:31:56.332Z,29.77
2018-02-20T07:34:23.799Z,37.33
2018-02-20T07:36:51.243Z,34.73
2018-02-20T07:39:18.707Z,37.60
2018-02-20T07:41:46.148Z,34.60
2018-02-20T07:44:13.597Z,40.07
2018-02-20T07:46:41.060Z,34.10
2018-02-20T07:49:09.410Z,35.50
2018-02-20T07:51:37.620Z,34.10
2018-02-20T07:54:05.087Z,50.80
2018-02-20T07:56:32.535Z,35.90
2018-02-20T07:59:00.017Z,41.33
2018-02-20T08:01:27.456Z,37.53
2018-02-20T08:03:55.024Z,48.90
2018-02-20T08:06:22.464Z,36.47
2018-02-20T08:08:49.905Z,35.20
2018-02-20T08:11:17.395Z,38.20
2018-02-20T08:13:44.852Z,40.30
2018-02-20T08:16:12.291Z,37.10
2018-02-20T08:18:39.803Z,37.10
2018-02-20T08:21:07.232Z,35.63
2018-02-20T08:23:34.778Z,34.37
2018-02-20T08:26:02.237Z,37.73
2018-02-20T08:28:29.808Z,38.77
2018-02-20T08:30:57.253Z,49.20
2018-02-20T08:33:25.433Z,34.00
2018-02-20T08:35:52.992Z,43.07
2018-02-20T08:38:20.440Z,39.70
2018-02-20T08:40:47.884Z,39.03
2018-02-20T08:43:15.372Z,35.60
2018-02-20T08:45:42.921Z,38.70
2018-02-20T08:48:10.383Z,37.10
2018-02-20T08:50:37.823Z,32.93
2018-02-20T08:53:05.284Z,40.67
2018-02-20T08:55:32.726Z,35.10
2018-02-20T08:58:00.212Z,39.77
2018-02-20T09:00:27.639Z,38.80
2018-02-20T09:02:55.076Z,41.83
2018-02-20T09:05:22.520Z,36.90
2018-02-20T09:07:50.754Z,35.10
2018-02-20T09:10:18.184Z,44.10
2018-02-20T09:12:45.617Z,38.27
2018-02-20T09:15:13.112Z,37.70
2018-02-20T09:17:40.550Z,37.67
2018-02-20T09:20:08.019Z,38.57
2018-02-20T09:22:35.464Z,44.10
2018-02-20T09:25:02.940Z,37.13
2018-02-20T09:27:30.370Z,45.70
2018-02-20T09:29:57.851Z,67.00
2018-02-20T09:32:25.293Z,41.00
2018-02-20T09:34:52.751Z,40.30
2018-02-20T09:37:20.220Z,35.37
2018-02-20T09:39:47.651Z,38.70
2018-02-20T09:42:15.135Z,38.70
2018-02-20T09:44:42.592Z,36.07
2018-02-20T09:47:10.048Z,34.90
2018-02-20T09:49:37.504Z,38.47
2018-02-20T09:52:04.951Z,35.87
2018-02-20T09:54:32.416Z,34.47
2018-02-20T09:56:59.875Z,34.13
2018-02-20T09:59:27.327Z,35.57
2018-02-20T10:01:54.762Z,39.90
2018-02-20T10:04:22.248Z,35.03
2018-02-20T10:06:49.708Z,31.77
2018-02-20T10:09:17.881Z,40.70
2018-02-20T10:11:45.328Z,35.57
2018-02-20T10:14:13.607Z,29.73
2018-02-20T10:16:41.035Z,33.80
2018-02-20T10:19:08.723Z,35.50
2018-02-20T10:21:36.184Z,35.97
2018-02-20T10:24:03.641Z,36.07
2018-02-20T10:26:31.104Z,37.47
2018-02-20T10:28:58.671Z,30.63
2018-02-20T10:31:26.116Z,36.53
2018-02-20T10:33:53.561Z,34.47
2018-02-20T10:36:21.038Z,36.80
2018-02-20T10:38:48.627Z,36.13
2018-02-20T10:41:16.147Z,44.47
2018-02-20T10:43:43.607Z,35.33
2018-02-20T10:46:11.169Z,36.87
2018-02-20T10:48:38.612Z,39.30
2018-02-20T10:51:06.068Z,41.23
2018-02-20T10:53:33.536Z,33.07
2018-02-20T10:56:00.995Z,40.73
2018-02-20T10:58:28.423Z,34.07
2018-02-20T11:00:55.910Z,44.53
2018-02-20T11:03:23.339Z,40.83
2018-02-20T11:05:50.779Z,38.23
2018-02-20T11:08:18.275Z,38.37
2018-02-20T11:10:45.839Z,42.60
2018-02-20T11:13:13.321Z,29.70
2018-02-20T11:15:40.754Z,39.13
2018-02-20T11:18:08.203Z,40.40
2018-02-20T11:20:35.673Z,41.33
2018-02-20T11:23:03.108Z,33.60
2018-02-20T11:25:30.588Z,36.57
2018-02-20T11:27:58.137Z,41.30
2018-02-20T11:30:25.600Z,39.13
2018-02-20T11:32:53.091Z,37.40
2018-02-20T11:35:21.299Z,38.13
2018-02-20T11:37:48.736Z,31.90
2018-02-20T11:40:16.239Z,34.43
2018-02-20T11:42:43.672Z,35.73
2018-02-20T11:45:11.154Z,33.10
2018-02-20T11:47:38.587Z,34.83
2018-02-20T11:50:06.027Z,32.97
2018-02-20T11:52:33.503Z,36.03
2018-02-20T11:55:00.982Z,36.63
2018-02-20T11:57:28.412Z,42.33
2018-02-20T11:59:55.851Z,38.80
2018-02-20T12:02:23.292Z,31.63
2018-02-20T12:04:51.527Z,38.67
2018-02-20T12:07:18.985Z,33.77
2018-02-20T12:09:46.419Z,39.70
2018-02-20T12:12:13.891Z,36.93
2018-02-20T12:14:41.356Z,31.80
2018-02-20T12:17:08.916Z,33.70
2018-02-20T12:19:36.376Z,32.00
2018-02-20T12:22:03.820Z,32.83
2018-02-20T12:24:31.280Z,30.70
2018-02-20T12:26:58.724Z,31.87
2018-02-20T12:29:26.199Z,29.70
2018-02-20T12:31:53.648Z,38.10
2018-02-20T12:34:21.243Z,27.10
2018-02-20T12:36:48.784Z,32.67
2018-02-20T12:39:16.339Z,36.80
2018-02-20T12:41:43.890Z,34.83
2018-02-20T12:44:11.328Z,37.93
2018-02-20T12:46:38.802Z,33.30
2018-02-20T12:49:06.276Z,41.50
2018-02-20T12:51:33.724Z,42.03
2018-02-20T12:54:01.275Z,33.20
2018-02-20T12:56:28.836Z,34.30
2018-02-20T12:58:56.441Z,32.03
2018-02-20T13:01:24.679Z,31.20
2018-02-20T13:03:52.228Z,30.37
2018-02-20T13:06:20.195Z,31.93
2018-02-20T13:08:47.674Z,29.03
2018-02-20T13:11:15.215Z,29.47
2018-02-20T13:13:42.676Z,32.63
2018-02-20T13:16:10.130Z,36.00
2018-02-20T13:18:38.460Z,29.50
2018-02-20T13:21:06.680Z,35.23
2018-02-20T13:23:34.296Z,46.17
2018-02-20T13:26:02.497Z,32.77
2018-02-20T13:28:30.011Z,36.17
2018-02-20T13:30:58.279Z,43.63
2018-02-20T13:33:26.857Z,36.53
2018-02-20T13:35:54.405Z,37.60
2018-02-20T13:38:21.953Z,36.70
2018-02-20T13:40:49.403Z,32.47
2018-02-20T13:43:16.867Z,35.97
2018-02-20T13:45:44.336Z,40.13
2018-02-20T13:48:11.775Z,36.30
2018-02-20T13:50:39.235Z,34.87
2018-02-20T13:53:06.701Z,33.83
2018-02-20T13:55:34.260Z,41.47
2018-02-20T13:58:01.716Z,36.50
2018-02-20T14:00:29.168Z,41.50
2018-02-20T14:02:56.723Z,39.37
2018-02-20T14:05:24.182Z,34.57
2018-02-20T14:07:51.635Z,37.30
2018-02-20T14:10:19.091Z,34.00
2018-02-20T14:12:46.536Z,34.93
2018-02-20T14:15:13.980Z,37.10
2018-02-20T14:17:41.472Z,37.57
2018-02-20T14:20:08.938Z,35.33
2018-02-20T14:22:36.486Z,36.93
2018-02-20T14:25:03.939Z,36.80
2018-02-20T14:27:32.332Z,34.47
2018-02-20T14:29:59.768Z,35.80
2018-02-20T14:32:27.241Z,37.20
2018-02-20T14:34:54.691Z,36.80
2018-02-20T14:37:22.146Z,40.23
2018-02-20T14:39:49.579Z,38.00
2018-02-20T14:42:17.060Z,41.47
2018-02-20T14:44:44.495Z,35.73
2018-02-20T14:47:11.973Z,40.20
2018-02-20T14:49:39.429Z,41.50
2018-02-20T14:52:06.863Z,45.47
2018-02-20T14:54:34.350Z,37.57
2018-02-20T14:57:01.879Z,39.10
2018-02-20T14:59:30.028Z,36.87
2018-02-20T15:01:58.244Z,47.40
2018-02-20T15:04:25.715Z,44.27
2018-02-20T15:06:53.267Z,44.30
2018-02-20T15:09:20.727Z,42.33
2018-02-20T15:11:48.183Z,48.53
2018-02-20T15:14:15.640Z,44.00
2018-02-20T15:16:43.194Z,50.20
2018-02-20T15:19:10.753Z,46.17
2018-02-20T15:21:38.207Z,44.43
2018-02-20T15:24:05.641Z,42.43
2018-02-20T15:26:33.135Z,50.97
2018-02-20T15:29:00.572Z,42.03
2018-02-20T15:31:28.003Z,45.03
2018-02-20T15:33:55.464Z,46.27
2018-02-20T15:36:22.904Z,53.23
2018-02-20T15:38:51.142Z,46.23
2018-02-20T15:41:19.344Z,43.53
2018-02-20T15:43:47.681Z,41.10
2018-02-20T15:46:15.144Z,55.00
2018-02-20T15:48:43.307Z,48.60
2018-02-20T15:51:10.764Z,50.03
2018-02-20T15:53:38.220Z,44.53
2018-02-20T15:56:05.664Z,41.80
2018-02-20T15:58:33.139Z,42.00
2018-02-20T16:01:00.596Z,46.67
2018-02-20T16:03:28.040Z,43.80
2018-02-20T16:05:55.477Z,45.00
2018-02-20T16:08:22.920Z,44.07
2018-02-20T16:10:51.242Z,46.57
2018-02-20T16:13:18.696Z,47.40
2018-02-20T16:16:01.040Z,42.40
2018-02-20T16:18:29.246Z,45.47
2018-02-20T16:20:56.732Z,47.87
2018-02-20T16:23:24.191Z,47.23
2018-02-20T16:25:51.623Z,47.13
2018-02-20T16:28:19.092Z,45.90
2018-02-20T16:30:46.524Z,45.20
2018-02-20T16:33:13.956Z,47.20
2018-02-20T16:35:42.189Z,42.67
2018-02-20T16:38:09.624Z,46.23
2018-02-20T16:40:37.056Z,47.30
2018-02-20T16:43:04.553Z,46.10
2018-02-20T16:45:32.024Z,46.37
2018-02-20T16:47:59.462Z,42.53
2018-02-20T16:50:26.927Z,48.70
2018-02-20T16:52:54.374Z,45.53
2018-02-20T16:55:21.803Z,41.00
2018-02-20T16:57:49.251Z,43.23
2018-02-20T17:00:17.452Z,47.87
2018-02-20T17:02:44.931Z,48.20
2018-02-20T17:05:12.384Z,47.27
2018-02-20T17:07:39.831Z,47.33
2018-02-20T17:10:07.267Z,50.67
2018-02-20T17:12:34.768Z,50.80
2018-02-20T17:15:02.215Z,46.93
2018-02-20T17:17:29.771Z,56.17
2018-02-20T17:19:57.207Z,54.07
2018-02-20T17:22:24.664Z,48.03
2018-02-20T17:24:52.151Z,45.80
2018-02-20T17:27:19.584Z,46.27
2018-02-20T17:29:47.028Z,50.53
2018-02-20T17:32:14.527Z,48.50
2018-02-20T17:34:41.971Z,50.40
2018-02-20T17:37:09.435Z,47.57
2018-02-20T17:39:36.891Z,43.73
2018-02-20T17:42:04.344Z,51.40
2018-02-20T17:44:31.799Z,52.78
2018-02-20T17:46:59.259Z,51.50
2018-02-20T17:49:26.704Z,44.30
2018-02-20T17:51:54.167Z,55.50
2018-02-20T17:54:21.630Z,54.13
2018-02-20T17:56:49.072Z,51.60
2018-02-20T17:59:16.528Z,56.28
2018-02-20T18:01:43.959Z,50.90
2018-02-20T18:04:11.400Z,53.78
2018-02-20T18:06:39.607Z,55.90
2018-02-20T18:09:07.043Z,46.60
2018-02-20T18:11:34.476Z,58.20
2018-02-20T18:14:02.676Z,65.80
2018-02-20T18:16:30.117Z,56.90
2018-02-20T18:18:58.317Z,47.17
2018-02-20T18:21:25.753Z,60.17
2018-02-20T18:23:53.955Z,50.20
2018-02-20T18:26:21.424Z,43.50
2018-02-20T18:28:48.844Z,56.37
2018-02-20T18:31:16.273Z,84.50
2018-02-20T18:33:43.711Z,71.77
2018-02-20T18:36:11.164Z,68.13
2018-02-20T18:38:38.608Z,77.50
2018-02-20T18:41:06.047Z,64.70
2018-02-20T18:43:33.528Z,86.72
2018-02-20T18:46:00.961Z,58.17
2018-02-20T18:48:28.395Z,59.60
2018-02-20T18:50:56.604Z,60.60
2018-02-20T18:53:24.042Z,55.67
2018-02-20T18:55:51.475Z,66.30
2018-02-20T18:58:19.687Z,67.60
2018-02-20T19:00:47.126Z,62.30
2018-02-20T19:03:14.571Z,55.67
2018-02-20T19:05:42.778Z,51.87
2018-02-20T19:08:10.256Z,62.62
2018-02-20T19:10:37.695Z,60.10
2018-02-20T19:13:05.123Z,56.63
2018-02-20T19:15:32.568Z,52.27
2018-02-20T19:18:00.779Z,54.83
2018-02-20T19:20:28.211Z,51.00
2018-02-20T19:22:55.651Z,51.93
2018-02-20T19:25:23.855Z,59.03
2018-02-20T19:27:51.287Z,63.07
2018-02-20T19:30:19.503Z,71.43
2018-02-20T19:32:46.935Z,77.10
2018-02-20T19:35:14.395Z,65.07
2018-02-20T19:37:41.823Z,80.40
2018-02-20T19:40:10.020Z,76.53
2018-02-20T19:42:37.462Z,56.17
2018-02-20T19:45:05.672Z,58.07
2018-02-20T19:47:33.125Z,60.10
2018-02-20T19:50:00.580Z,62.13
2018-02-20T19:52:28.015Z,59.67
2018-02-20T19:54:55.444Z,54.67
2018-02-20T19:57:22.888Z,58.83
2018-02-20T19:59:50.335Z,70.60
2018-02-20T20:02:17.772Z,63.63
2018-02-20T20:04:45.216Z,66.37
2018-02-20T20:07:12.659Z,62.67
2018-02-20T20:09:40.096Z,65.33
2018-02-20T20:12:08.300Z,70.33
2018-02-20T20:14:35.744Z,59.57
2018-02-20T20:17:03.186Z,54.93
2018-02-20T20:19:31.384Z,69.40
2018-02-20T20:21:58.824Z,64.27
2018-02-20T20:24:26.288Z,61.40
2018-02-20T20:26:53.727Z,59.70
2018-02-20T20:29:21.936Z,70.33
2018-02-20T20:31:49.375Z,68.80
2018-02-20T20:34:16.812Z,60.87
2018-02-20T20:36:45.034Z,63.90
2018-02-20T20:39:12.469Z,71.00
2018-02-20T20:41:39.905Z,69.30
2018-02-20T20:44:08.112Z,63.57
2018-02-20T20:46:35.540Z,60.50
2018-02-20T20:49:02.992Z,67.03
2018-02-20T20:51:31.196Z,63.70
2018-02-20T20:53:58.644Z,64.03
2018-02-20T20:56:26.936Z,66.10
2018-02-20T20:58:54.371Z,62.90
2018-02-20T21:01:21.828Z,67.23
2018-02-20T21:03:50.021Z,60.40
2018-02-20T21:06:17.466Z,68.47
2018-02-20T21:08:44.900Z,87.33
2018-02-20T21:11:13.105Z,71.20
2018-02-20T21:13:40.587Z,73.17
2018-02-20T21:16:08.032Z,67.57
2018-02-20T21:18:35.464Z,71.97
2018-02-20T21:21:02.917Z,68.03
2018-02-20T21:23:30.370Z,73.80
2018-02-20T21:25:57.828Z,66.13
2018-02-20T21:28:25.262Z,61.37
2018-02-20T21:30:53.458Z,73.13
2018-02-20T21:33:20.917Z,109.13
2018-02-20T21:35:48.343Z,82.60
2018-02-20T21:38:16.546Z,90.93
2018-02-20T21:40:44.008Z,111.70
2018-02-20T21:43:11.441Z,75.57
2018-02-20T21:45:39.636Z,88.70
2018-02-20T21:48:07.071Z,110.07
2018-02-20T21:50:35.304Z,86.37
2018-02-20T21:53:02.744Z,87.20
2018-02-20T21:55:30.192Z,88.57
2018-02-20T21:57:57.620Z,77.33
2018-02-20T22:00:25.844Z,85.80
2018-02-20T22:02:53.308Z,78.20
2018-02-20T22:05:20.776Z,76.17
2018-02-20T22:07:48.240Z,79.83
2018-02-20T22:10:15.776Z,77.67
2018-02-20T22:12:43.211Z,77.43
2018-02-20T22:15:10.666Z,74.70
2018-02-20T22:17:38.150Z,93.07
2018-02-20T22:20:05.602Z,80.03
2018-02-20T22:22:33.048Z,87.53
2018-02-20T22:25:00.480Z,95.50
2018-02-20T22:27:27.927Z,89.97
2018-02-20T22:29:55.856Z,87.87
2018-02-20T22:32:23.412Z,82.43
2018-02-20T22:34:50.964Z,97.10
2018-02-20T22:37:18.516Z,103.13
2018-02-20T22:39:46.631Z,91.87
2018-02-20T22:42:14.062Z,92.60
2018-02-20T22:44:41.507Z,80.03
2018-02-20T22:47:08.959Z,81.50
2018-02-20T22:49:36.415Z,113.07
2018-02-20T22:52:03.871Z,107.73
2018-02-20T22:54:31.327Z,104.77
2018-02-20T22:59:32.703Z,100.47
2018-02-20T23:02:00.153Z,92.80
2018-02-20T23:04:27.588Z,90.93
2018-02-20T23:06:55.071Z,96.23
2018-02-20T23:09:22.640Z,91.77
2018-02-20T23:11:50.193Z,103.57
2018-02-20T23:14:17.643Z,102.63
2018-02-20T23:16:45.091Z,106.87
2018-02-20T23:19:12.522Z,98.17
2018-02-20T23:21:40.733Z,79.93
2018-02-20T23:24:08.189Z,93.23
2018-02-20T23:26:35.649Z,83.47
2018-02-20T23:29:03.076Z,80.33
2018-02-20T23:31:31.384Z,89.60
2018-02-20T23:33:58.821Z,79.10
2018-02-20T23:36:26.273Z,70.07
2018-02-20T23:38:53.752Z,78.57
2018-02-20T23:41:21.205Z,77.23
2018-02-20T23:43:48.647Z,72.57
2018-02-20T23:46:16.119Z,79.73
2018-02-20T23:48:43.564Z,63.70
2018-02-20T23:51:16.869Z,76.43
2018-02-20T23:53:44.316Z,68.23
2018-02-20T23:56:11.777Z,63.33
2018-02-20T23:58:39.252Z,68.07
